Flight Track Log - Related Links

Times and Time Zones

All times are in EDT time to prevent confusion due to time zone crossing. See the JBU51 flight status page for this flight to view local times or setup timezone preferences in your user account.

Time Position Orientation Groundspeed Altitude Reporting Facility
EDT Latitude Longitude Course Direction KTS MPH feet Rate Location/Type
Thu 11:30:00 AM 44.2131 -73.2369 216° Southwest  Level FlightAware Approximate
Thu 11:30:56 AM 44.3536 -73.0092 196° South 264 304 8,400  Level Boston Center
Thu 11:31:00 AM 44.1312 -73.2758 195° South  Level FlightAware Approximate
Thu 11:31:56 AM 44.2575 -73.0575 200° South 275 316 11,100  Level Boston Center
Thu 11:32:00 AM 44.0467 -73.3067 194° South  Level FlightAware Approximate
Thu 11:32:56 AM 44.1636 -73.1058 200° South 335 386 13,500  Level Boston Center
Thu 11:33:00 AM 43.9618 -73.3350 193° South  Level FlightAware Approximate
Thu 11:33:56 AM 44.0592 -73.1564 199° South 384 442 16,200  Level Boston Center
Thu 11:34:00 AM 43.8774 -73.3658 196° South  Level FlightAware Approximate
Thu 11:34:56 AM 43.9567 -73.2100 201° Southwest 393 452 18,200  Level Boston Center
Thu 11:35:00 AM 43.7935 -73.3995 196° South  Level FlightAware Approximate
Thu 11:35:56 AM 43.8561 -73.2606 200° South 413 475 20,500  Level Boston Center
Thu 11:36:00 AM 43.7096 -73.4330 196° South  Level FlightAware Approximate
Thu 11:36:56 AM 43.7433 -73.3167 200° South 419 482 22,500  Level Boston Center
Thu 11:37:56 AM 43.6136 -73.3806 200° South 439 505 24,500 1,850 Climbing Boston Center
Thu 11:38:56 AM 43.4944 -73.4389 200° South 451 519 26,200 1,600 Climbing Boston Center
Thu 11:39:56 AM 43.3708 -73.4997 200° South 456 525 27,700 900 Climbing Boston Center
Thu 11:40:56 AM 43.2494 -73.5575 199° South 468 539 28,000 150 Climbing Boston Center
Thu 11:41:56 AM 43.1236 -73.6233 201° Southwest 468 539 28,000  Level Boston Center
Thu 11:42:56 AM 43.0022 -73.6808 199° South 468 539 28,000  Level Boston Center
Thu 11:43:56 AM 42.8786 -73.7406 199° South 468 539 28,000 -150 Level Boston Center
Thu 11:44:56 AM 42.7528 -73.8003 199° South 468 539 27,700 -850 Descending Boston Center
Thu 11:45:56 AM 42.6233 -73.8114 184° South 461 531 26,300 -773 Descending Boston Center
Thu 11:47:08 AM 42.4733 -73.8136 181° South 461 531 26,000 -136 Descending Boston Center
Thu 11:48:08 AM 42.3442 -73.8136 180° South 461 531 26,000  Level Boston Center
Thu 11:49:08 AM 42.2147 -73.8192 182° South 461 531 26,000  Level Boston Center
Thu 11:50:08 AM 42.0878 -73.8247 182° South 461 531 26,000  Level Boston Center
Thu 11:51:08 AM 41.9600 -73.8694 195° South 461 531 26,000  Level Boston Center
Thu 11:52:58 AM 41.7333 -73.9428 194° South 475 547 26,000 -671 Level New York Center
Thu 11:53:58 AM 41.6092 -73.9867 195° South 475 547 24,100 -1,983 Descending New York Center
Thu 11:54:59 AM 41.5064 -74.0206 194° South 463 533 22,000 -2,033 Descending New York Center
Thu 11:55:59 AM 41.3925 -74.0675 197° South 444 511 20,000 -1,000 Descending New York Center
Thu 11:56:59 AM 41.2947 -74.1428 210° Southwest 424 488 20,000  Level New York Center
Thu 11:57:57 AM 41.1797 -74.1589 186° South 418 481 20,000 -254 Level New York Center
Thu 11:58:57 AM 41.0633 -74.1478 176° South 412 474 19,500 -513 Descending New York Center
Thu 11:59:54 AM 40.9500 -74.1333 175° South 375 432 19,000 -256 Descending New York TRACON
Thu 12:00:54 PM 40.8833 -74.0500 137° Southeast 328 377 19,000 -550 Level New York TRACON
Thu 12:01:54 PM 40.8333 -73.9500 123° Southeast 320 368 17,900 -1,450 Descending New York TRACON
Thu 12:02:54 PM 40.7833 -73.8500 123° Southeast 313 360 16,100 -1,722 Descending New York TRACON
Thu 12:03:49 PM 40.7500 -73.7667 118° Southeast 319 367 14,600 -1,800 Descending New York TRACON
Thu 12:04:54 PM 40.6833 -73.6833 137° Southeast 338 389 12,500 -1,700 Descending New York TRACON
Thu 12:05:49 PM 40.6167 -73.6500 159° South 334 384 11,200 -1,513 Descending New York TRACON
Thu 12:06:49 PM 40.5333 -73.6333 171° South 290 334 9,600 -1,600 Descending New York TRACON
Thu 12:07:49 PM 40.4500 -73.6667 197° South 301 346 8,000 -1,000 Descending New York TRACON
Thu 12:08:49 PM 40.3833 -73.7333 217° Southwest 297 342 7,600 -1,059 Descending New York TRACON
Thu 12:09:48 PM 40.3167 -73.7833 210° Southwest 291 335 5,900 -1,050 Descending New York TRACON
Thu 12:10:49 PM 40.3000 -73.8833 258° West 267 307 5,500 -678 Descending New York TRACON
Thu 12:11:43 PM 40.3167 -73.9500 288° West 246 283 4,600 -857 Descending New York TRACON
Thu 12:11:59 PM 40.3289 -73.9644 318° Northwest 236 272 4,500 -811 Descending New York Center
Thu 12:12:57 PM 40.3733 -74.0103 322° Northwest 193 222 3,600 -865 Descending New York Center
Thu 12:13:43 PM 40.4167 -74.0167 354° North 180 207 3,000 -340 Descending New York TRACON
Thu 12:14:43 PM 40.4667 -74.0167 360° North 178 205 3,000  Level New York TRACON
Thu 12:15:43 PM 40.5000 -73.9833 37° Northeast 175 201 3,000  Level New York TRACON
Thu 12:16:43 PM 40.5333 -73.9500 37° Northeast 174 200 3,000 -50 Level New York TRACON
Thu 12:17:43 PM 40.5833 -73.9167 27° Northeast 174 200 2,900 -524 Descending New York TRACON
Thu 12:18:49 PM 40.6333 -73.8833 27° Northeast 180 207 1,900 -850 Descending New York TRACON
Thu 12:19:43 PM 40.6667 -73.8500 37° Northeast 149 171 1,200 -778 Descending New York TRACON

Login

Don't have an account? Register now (free) for customized features, flight alerts, and more!